• Join FlightAware (Why Join?)
  • Login
  • US Flag 
01:19AM EDT


 

Airport Tracker/Info


-or-


 

Live Flight TrackerFlight Track Log ✈ AAY846 ✈ 19-Mar-2014 ✈ KPIE - KPIA

Flight Track Log - Related Links

Times and Time Zones

All times are in EDT time to prevent confusion due to time zone crossing. See the AAY846 flight status page for this flight to view local times or setup timezone preferences in your user account.

Time Position Orientation Groundspeed Altitude Reporting Facility
EDT Latitude Longitude Course Direction KTS MPH feet Rate Location/Type
08:47AM 27.9167 -82.6833 319° Northwest 101 116 500  Level Tampa TRACON
08:47AM 27.9333 -82.7000 319° Northwest 158 182 1,600 1,380 Climbing Tampa TRACON
08:48AM 28.0000 -82.6667 12° North 229 264 2,600 1,020 Climbing Tampa TRACON
08:49AM 28.0500 -82.6833 344° North 242 278 3,700 1,860 Climbing Tampa TRACON
08:51AM 28.1561 -82.7231 342° North 255 293 7,300 2,400 Climbing Jacksonville Center
08:52AM 28.2292 -82.7558 338° Northwest 266 306 10,000 1,980 Climbing Jacksonville Center
08:53AM 28.3086 -82.7958 336° Northwest 289 333 11,300 1,740 Climbing Jacksonville Center
08:54AM 28.4003 -82.8358 339° North 321 369 13,500 2,100 Climbing Jacksonville Center
08:55AM 28.4964 -82.8736 341° North 347 399 15,500 2,100 Climbing Jacksonville Center
08:56AM 28.5964 -82.9139 341° North 362 417 17,700 1,800 Climbing Jacksonville Center
08:57AM 28.6861 -82.9494 341° North 375 432 19,200 1,500 Climbing Jacksonville Center
08:58AM 28.7886 -82.9944 339° North 380 437 20,800 1,440 Climbing Jacksonville Center
08:59AM 28.8928 -83.0397 339° North 391 450 22,100 1,380 Climbing Jacksonville Center
09:00AM 29.0056 -83.0897 339° North 405 466 23,600 1,740 Climbing Jacksonville Center
09:01AM 29.1139 -83.1350 340° North 417 480 25,600 1,560 Climbing Jacksonville Center
09:02AM 29.2244 -83.1828 339° North 417 480 26,800 1,140 Climbing Jacksonville Center
09:03AM 29.3350 -83.2381 336° Northwest 417 480 27,900 1,200 Climbing Jacksonville Center
09:04AM 29.4558 -83.2956 337° Northwest 417 480 29,200 1,140 Climbing Jacksonville Center
09:05AM 29.5706 -83.3486 338° Northwest 422 486 30,200 1,260 Climbing Jacksonville Center
09:06AM 29.6808 -83.4017 337° Northwest 428 493 31,800 840 Climbing Jacksonville Center
09:11AM 30.2930 -83.6935 337° Northwest 404 465 36,000 600 Climbing FlightAware ADS-B (KTLH)
09:12AM 30.3600 -83.7260 337° Northwest 407 468 36,000  Level FlightAware ADS-B (KTLH)
09:13AM 30.4195 -83.7550 337° Northwest 407 468 36,000 60 Level FlightAware ADS-B (KTLH)
09:13AM 30.5017 -83.7949 337° Northwest 407 468 36,100  Climbing FlightAware ADS-B (KTLH)
09:14AM 30.5575 -83.8220 337° Northwest 407 468 36,000 -120 Descending FlightAware ADS-B (KTLH)
09:15AM 30.6275 -83.8562 337° Northwest 407 468 36,000  Level FlightAware ADS-B (KTLH)
09:15AM 30.6958 -83.8895 337° Northwest 406 467 36,000  Level FlightAware ADS-B (KTLH)
09:16AM 30.7614 -83.9215 337° Northwest 405 466 36,000  Level FlightAware ADS-B (KTLH)
09:17AM 30.8251 -83.9527 337° Northwest 404 465 36,000  Level FlightAware ADS-B (KTLH)
09:17AM 30.8851 -83.9822 337° Northwest 404 465 36,000  Level FlightAware ADS-B (KTLH)
09:18AM 30.9398 -84.0091 337° Northwest 403 464 36,000  Level FlightAware ADS-B (KTLH)
09:19AM 31.1188 -84.0971 337° Northwest 405 466 36,000  Level FlightAware ADS-B (KTLH)
09:21AM 31.2561 -84.1675 337° Northwest 399 459 36,000  Level Atlanta Center
09:22AM 31.3603 -84.2189 337° Northwest 399 459 36,000  Level Atlanta Center
09:23AM 31.4625 -84.2725 336° Northwest 399 459 36,000  Level Atlanta Center
09:24AM 31.5667 -84.3242 337° Northwest 399 459 36,000  Level Atlanta Center
09:25AM 31.6711 -84.3756 337° Northwest 399 459 36,000  Level Atlanta Center
09:26AM 31.7731 -84.4272 337° Northwest 399 459 36,000  Level Atlanta Center
09:27AM 31.8772 -84.4767 338° Northwest 399 459 36,000  Level Atlanta Center
09:28AM 31.9794 -84.5311 336° Northwest 399 459 36,000  Level Atlanta Center
09:29AM 32.0836 -84.5806 338° Northwest 399 459 36,000  Level Atlanta Center
09:30AM 32.1878 -84.6353 336° Northwest 399 459 36,000  Level Atlanta Center
09:31AM 32.2897 -84.6850 338° Northwest 399 459 36,000  Level Atlanta Center
09:32AM 32.3939 -84.7375 337° Northwest 399 459 36,000  Level Atlanta Center
09:33AM 32.4978 -84.7925 336° Northwest 399 459 36,000  Level Atlanta Center
09:34AM 32.6103 -84.8453 338° Northwest 399 459 36,000  Level Atlanta Center
09:35AM 32.7183 -84.8981 338° Northwest 399 459 36,000  Level Atlanta Center
09:36AM 32.8119 -84.9583 332° Northwest 412 474 36,000  Level Atlanta Center
09:37AM 32.9181 -85.0089 338° Northwest 418 481 36,000  Level Atlanta Center
09:38AM 33.0219 -85.0619 337° Northwest 412 474 36,000  Level Atlanta Center
09:39AM 33.1258 -85.1153 337° Northwest 407 468 36,000  Level Atlanta Center
09:40AM 33.2381 -85.1739 336° Northwest 401 461 36,000  Level Atlanta Center
09:41AM 33.3419 -85.2275 337° Northwest 401 461 36,000  Level Atlanta Center
09:42AM 33.4436 -85.2786 337° Northwest 395 455 36,000  Level Atlanta Center
09:43AM 33.5475 -85.3350 336° Northwest 395 455 36,000  Level Atlanta Center
09:49AM 34.1372 -85.6407 336° Northwest 408 470 36,000  Level FlightAware ADS-B (KMDQ)
09:49AM 34.2077 -85.6782 336° Northwest 405 466 36,000  Level FlightAware ADS-B (KMDQ)
09:50AM 34.2776 -85.7155 336° Northwest 403 464 36,000  Level FlightAware ADS-B (KMDQ)
09:51AM 34.3439 -85.7509 336° Northwest 403 464 36,000  Level FlightAware ADS-B (KMDQ)
09:51AM 34.4185 -85.7907 336° Northwest 403 464 36,000  Level FlightAware ADS-B (KMDQ)
09:52AM 34.4868 -85.8273 336° Northwest 407 468 36,000  Level FlightAware ADS-B (KMDQ)
09:53AM 34.5407 -85.8562 336° Northwest 408 470 36,000 60 Level FlightAware ADS-B (KMDQ)
09:53AM 34.6201 -85.8989 336° Northwest 409 471 36,100 60 Climbing FlightAware ADS-B (KMDQ)
09:54AM 34.7195 -85.9523 336° Northwest 406 467 36,100 -60 Level FlightAware ADS-B (KMDQ)
09:55AM 34.7811 -85.9855 336° Northwest 404 465 36,000 -120 Descending FlightAware ADS-B (KMDQ)
09:56AM 34.8659 -86.0313 336° Northwest 404 465 36,000  Level FlightAware ADS-B (KMDQ)
09:56AM 34.9287 -86.0654 336° Northwest 404 465 36,000  Level FlightAware ADS-B (KMDQ)
09:57AM 35.0007 -86.1045 336° Northwest 403 464 36,000  Level FlightAware ADS-B (KMDQ)
09:58AM 35.0638 -86.1389 336° Northwest 402 463 36,000  Level FlightAware ADS-B (KMDQ)
09:58AM 35.1359 -86.1781 336° Northwest 402 463 36,000  Level FlightAware ADS-B (KMDQ)
09:59AM 35.2063 -86.2166 336° Northwest 402 463 36,000  Level FlightAware ADS-B (KMDQ)
10:00AM 35.2721 -86.2525 336° Northwest 402 463 36,000  Level FlightAware ADS-B (KMDQ)
10:00AM 35.3388 -86.2890 336° Northwest 402 463 36,000  Level FlightAware ADS-B (KMDQ)
10:01AM 35.4121 -86.3294 336° Northwest 404 465 36,000  Level FlightAware ADS-B (KMDQ)
10:02AM 35.4525 -86.3515 336° Northwest 403 464 36,000  Level FlightAware ADS-B (KMDQ)
10:02AM 35.5479 -86.4041 336° Northwest 405 466 36,000 60 Level FlightAware ADS-B (KMDQ)
10:03AM 35.6148 -86.4412 335° Northwest 402 463 36,100 60 Climbing FlightAware ADS-B (KMDQ)
10:04AM 35.6732 -86.4760 334° Northwest 398 458 36,100 -120 Level FlightAware ADS-B (KMDQ)
10:04AM 35.7465 -86.5205 334° Northwest 396 456 36,000 -120 Descending FlightAware ADS-B (KMDQ)
10:05AM 35.8130 -86.5604 334° Northwest 396 456 36,000  Level FlightAware ADS-B (KMDQ)
10:06AM 35.8799 -86.6006 334° Northwest 396 456 36,000  Level FlightAware ADS-B (KMDQ)
10:08AM 36.0585 -86.7080 334° Northwest 389 448 36,000  Level FlightAware ADS-B (KMDQ)
10:09AM 36.2032 -86.7957 334° Northwest 388 447 36,000  Level FlightAware ADS-B (KMDQ)
10:12AM 36.4917 -86.9713 334° Northwest 386 444 36,000  Level FlightAware ADS-B
10:12AM 36.5410 -87.0015 334° Northwest 386 444 36,000 60 Level FlightAware ADS-B
10:13AM 36.6017 -87.0387 334° Northwest 387 445 36,100  Climbing FlightAware ADS-B
10:18AM 37.1101 -87.3528 334° Northwest 377 434 36,000 -60 Descending FlightAware ADS-B (KBRY)
10:19AM 37.2040 -87.4113 334° Northwest 379 436 36,000  Level FlightAware ADS-B
10:20AM 37.2523 -87.4416 333° Northwest 382 440 36,000  Level FlightAware ADS-B
10:21AM 37.3203 -87.4842 334° Northwest 386 444 36,000  Level FlightAware ADS-B
10:22AM 37.4690 -87.5775 333° Northwest 394 453 36,100  Climbing FlightAware ADS-B (KBRY)
10:23AM 37.5465 -87.6263 333° Northwest 396 456 36,100 -480 Level FlightAware ADS-B (KBRY)
10:27AM 37.9068 -87.8548 334° Northwest 392 451 34,000 -540 Descending FlightAware ADS-B (KMDH)
10:27AM 37.9742 -87.8977 333° Northwest 390 449 34,000  Level FlightAware ADS-B (KMDH)
10:28AM 38.0490 -87.9456 333° Northwest 387 445 34,000  Level FlightAware ADS-B (KMDH)
10:29AM 38.1051 -87.9817 333° Northwest 387 445 34,000  Level FlightAware ADS-B (KMDH)
10:30AM 38.1789 -88.0293 333° Northwest 387 445 34,000  Level FlightAware ADS-B (KMDH)
10:30AM 38.2226 -88.0574 333° Northwest 387 445 34,000  Level FlightAware ADS-B (KMDH)
10:31AM 38.2912 -88.1016 333° Northwest 388 447 34,000  Level FlightAware ADS-B (KMDH)
10:32AM 38.3887 -88.1645 333° Northwest 391 450 34,000  Level FlightAware ADS-B (KMDH)
10:32AM 38.4324 -88.1928 333° Northwest 395 455 34,000 -660 Level FlightAware ADS-B (KMDH)
10:33AM 38.5167 -88.2473 333° Northwest 395 455 33,200 -1,020 Descending FlightAware ADS-B (KMDH)
10:34AM 38.5873 -88.2935 333° Northwest 398 458 32,500 -900 Descending FlightAware ADS-B (KMDH)
10:34AM 38.6386 -88.3267 333° Northwest 393 452 32,100 -480 Descending FlightAware ADS-B (KMDH)
10:35AM 38.7033 -88.3691 333° Northwest 396 456 32,000 -120 Descending FlightAware ADS-B (KMDH)
10:36AM 38.7800 -88.4192 333° Northwest 395 455 32,000  Level FlightAware ADS-B (KMDH)
10:36AM 38.8337 -88.4545 333° Northwest 391 450 32,000  Level FlightAware ADS-B (KMDH)
10:37AM 38.8817 -88.4861 333° Northwest 391 450 32,000  Level FlightAware ADS-B (KMDH)
10:37AM 38.9300 -88.5179 333° Northwest 395 455 32,000  Level FlightAware ADS-B (KMDH)
10:38AM 38.9955 -88.5610 333° Northwest 395 455 32,000  Level FlightAware ADS-B (KMDH)
10:38AM 39.0436 -88.5927 333° Northwest 394 453 32,000  Level FlightAware ADS-B (KMDH)
10:39AM 39.0944 -88.6262 333° Northwest 390 449 32,000  Level FlightAware ADS-B (KMDH)
10:40AM 39.1583 -88.6685 333° Northwest 386 444 32,000  Level FlightAware ADS-B (KMDH)
10:40AM 39.2049 -88.6995 333° Northwest 386 444 32,000 -540 Level FlightAware ADS-B (KMDH)
10:41AM 39.2697 -88.7425 333° Northwest 388 447 31,400 -1,020 Descending FlightAware ADS-B (KMDH)
10:41AM 39.3324 -88.7844 333° Northwest 392 451 30,700 -1,140 Descending FlightAware ADS-B (KMDH)
10:42AM 39.3849 -88.8194 333° Northwest 390 449 30,000 -1,440 Descending FlightAware ADS-B (KMDH)
10:43AM 39.4501 -88.8628 333° Northwest 375 432 29,000 -1,860 Descending FlightAware ADS-B (KMDH)
10:45AM 39.6631 -89.0060 332° Northwest 367 422 24,600 -2,220 Descending FlightAware ADS-B (KMDH)
10:49AM 40.0147 -89.2448 332° Northwest 333 383 14,600 -2,220 Descending FlightAware ADS-B (KMDH)
10:50AM 40.1053 -89.3044 332° Northwest 331 381 13,200 -1,500 Descending Chicago Center
10:51AM 40.1811 -89.3569 332° Northwest 319 367 11,800 -1,080 Descending Chicago Center
10:52AM 40.2608 -89.3967 339° North 311 358 11,000 -1,080 Descending Chicago Center
10:53AM 40.3403 -89.4253 345° North 304 350 9,600 -1,860 Descending Chicago Center
10:54AM 40.4094 -89.4536 343° North 281 323 7,200 -2,280 Descending Chicago Center
10:55AM 40.4786 -89.4822 343° North 269 310 5,000 -2,040 Descending Chicago Center
10:56AM 40.5544 -89.5136 343° North 252 290 3,100 -1,320 Descending Chicago Center
10:57AM 40.5897 -89.5642 313° West 211 243 2,400 -540 Descending Chicago Center
10:58AM 40.6147 -89.6086 307° West 179 206 2,100 -540 Descending Chicago Center
10:59AM 40.6347 -89.6453 306° West 148 170 1,400 -720 Descending Chicago Center
11:00AM 40.6556 -89.6808 308° West 133 153 700 -420 Descending Chicago Center
11:01AM 40.6761 -89.7181 306° West 131 151 600 -120 Descending Chicago Center